createdAt,value
2023-04-26T00:00:12.146Z,86.93
2023-04-26T00:01:12.083Z,87.03
2023-04-26T00:02:12.080Z,87.24
2023-04-26T00:03:12.156Z,87.45
2023-04-26T00:04:12.278Z,87.55
2023-04-26T00:05:12.235Z,87.45
2023-04-26T00:06:12.080Z,86.93
2023-04-26T00:07:12.019Z,86.65
2023-04-26T00:08:12.161Z,86.34
2023-04-26T00:09:12.013Z,86.13
2023-04-26T00:10:12.017Z,85.93
2023-04-26T00:11:11.993Z,86.03
2023-04-26T00:12:11.986Z,86.44
2023-04-26T00:13:12.001Z,86.65
2023-04-26T00:14:11.981Z,86.86
2023-04-26T00:15:11.949Z,87.27
2023-04-26T00:16:12.009Z,87.38
2023-04-26T00:17:11.918Z,87.69
2023-04-26T00:18:11.944Z,87.90
2023-04-26T00:19:11.893Z,88.00
2023-04-26T00:20:11.931Z,88.15
2023-04-26T00:21:11.878Z,88.15
2023-04-26T00:22:11.853Z,88.25
2023-04-26T00:23:11.857Z,88.35
2023-04-26T00:24:12.019Z,88.35
2023-04-26T00:25:11.827Z,88.77
2023-04-26T00:26:11.882Z,88.87
2023-04-26T00:27:11.794Z,88.98
2023-04-26T00:28:11.793Z,89.08
2023-04-26T00:29:11.779Z,89.12
2023-04-26T00:30:11.872Z,88.81
2023-04-26T00:31:11.789Z,88.60
2023-04-26T00:32:11.896Z,88.60
2023-04-26T00:33:11.732Z,88.71
2023-04-26T00:34:11.736Z,89.12
2023-04-26T00:35:11.729Z,89.33
2023-04-26T00:36:11.724Z,89.48
2023-04-26T00:37:11.716Z,89.58
2023-04-26T00:38:11.683Z,89.37
2023-04-26T00:39:11.670Z,89.69
2023-04-26T00:40:11.719Z,89.89
2023-04-26T00:41:11.659Z,90.00
2023-04-26T00:42:11.839Z,90.10
2023-04-26T00:43:11.626Z,90.20
2023-04-26T00:44:11.625Z,90.31
2023-04-26T00:45:11.649Z,90.45
2023-04-26T00:46:11.683Z,90.62
2023-04-26T00:47:11.593Z,90.72
2023-04-26T00:48:11.784Z,90.62
2023-04-26T00:49:11.570Z,90.45
2023-04-26T00:50:11.644Z,90.45
2023-04-26T00:51:11.550Z,90.25
2023-04-26T00:52:11.649Z,90.04
2023-04-26T00:53:11.523Z,89.83
2023-04-26T00:54:11.551Z,89.94
2023-04-26T00:55:11.503Z,90.56
2023-04-26T00:56:11.558Z,90.97
2023-04-26T00:57:11.483Z,90.87
2023-04-26T00:58:11.477Z,91.08
2023-04-26T00:59:11.473Z,91.28
2023-04-26T01:00:11.521Z,91.75
2023-04-26T01:01:11.483Z,91.85
2023-04-26T01:02:11.564Z,91.75
2023-04-26T01:03:11.695Z,91.43
2023-04-26T01:04:11.573Z,91.53
2023-04-26T01:05:11.443Z,91.43
2023-04-26T01:06:11.536Z,91.22
2023-04-26T01:07:11.404Z,91.02
2023-04-26T01:08:11.391Z,90.70
2023-04-26T01:09:11.368Z,90.50
2023-04-26T01:10:11.357Z,90.44
2023-04-26T01:11:11.338Z,90.33
2023-04-26T01:12:11.400Z,90.33
2023-04-26T01:13:11.312Z,90.64
2023-04-26T01:14:11.398Z,91.06
2023-04-26T01:15:11.299Z,91.37
2023-04-26T01:16:11.343Z,91.47
2023-04-26T01:17:11.398Z,91.37
2023-04-26T01:18:11.433Z,91.58
2023-04-26T01:19:11.258Z,91.68
2023-04-26T01:20:11.321Z,91.78
2023-04-26T01:21:11.229Z,91.89
2023-04-26T01:22:11.611Z,91.89
2023-04-26T01:23:11.391Z,91.89
2023-04-26T01:24:11.193Z,91.89
2023-04-26T01:25:11.237Z,91.89
2023-04-26T01:26:11.283Z,92.00
2023-04-26T01:27:11.192Z,92.10
2023-04-26T01:28:11.197Z,92.21
2023-04-26T01:29:11.175Z,92.00
2023-04-26T01:30:11.135Z,91.47
2023-04-26T01:31:11.243Z,91.06
2023-04-26T01:32:11.204Z,91.10
2023-04-26T01:33:11.180Z,91.10
2023-04-26T01:34:11.150Z,91.00
2023-04-26T01:35:11.088Z,90.89
2023-04-26T01:36:11.069Z,91.00
2023-04-26T01:37:11.072Z,91.10
2023-04-26T01:38:11.067Z,90.89
2023-04-26T01:39:11.050Z,90.79
2023-04-26T01:40:11.048Z,90.68
2023-04-26T01:41:11.018Z,90.68
2023-04-26T01:42:11.039Z,90.93
2023-04-26T01:43:11.006Z,91.25
2023-04-26T01:44:11.029Z,91.41
2023-04-26T01:45:10.991Z,91.83
2023-04-26T01:46:11.009Z,91.83
2023-04-26T01:47:10.959Z,92.03
2023-04-26T01:48:11.128Z,91.83
2023-04-26T01:49:10.983Z,91.72
2023-04-26T01:50:10.928Z,91.52
2023-04-26T01:51:10.921Z,91.56
2023-04-26T01:52:10.959Z,91.87
2023-04-26T01:53:11.035Z,92.08
2023-04-26T01:54:10.873Z,92.40
2023-04-26T01:55:10.911Z,92.71
2023-04-26T01:56:10.917Z,92.81
2023-04-26T01:57:10.860Z,92.91
2023-04-26T01:58:10.875Z,92.91
2023-04-26T01:59:10.827Z,93.02
2023-04-26T02:00:10.905Z,93.33
2023-04-26T02:01:10.865Z,93.54
2023-04-26T02:02:10.974Z,93.54
2023-04-26T02:03:10.916Z,93.54
2023-04-26T02:04:10.798Z,93.75
2023-04-26T02:05:10.815Z,93.85
2023-04-26T02:06:10.784Z,93.75
2023-04-26T02:07:10.753Z,93.75
2023-04-26T02:08:10.830Z,93.65
2023-04-26T02:09:10.731Z,93.65
2023-04-26T02:10:10.702Z,93.54
2023-04-26T02:11:10.738Z,93.40
2023-04-26T02:12:10.766Z,93.40
2023-04-26T02:13:10.730Z,93.29
2023-04-26T02:14:10.737Z,93.18
2023-04-26T02:15:10.670Z,93.18
2023-04-26T02:16:10.908Z,93.40
2023-04-26T02:17:10.738Z,93.44
2023-04-26T02:18:10.651Z,93.44
2023-04-26T02:19:10.623Z,93.54
2023-04-26T02:20:10.617Z,93.33
2023-04-26T02:21:10.607Z,93.33
2023-04-26T02:22:10.742Z,93.33
2023-04-26T02:23:10.581Z,93.65
2023-04-26T02:24:10.664Z,93.65
2023-04-26T02:25:10.574Z,93.65
2023-04-26T02:26:10.576Z,93.54
2023-04-26T02:27:10.570Z,93.33
2023-04-26T02:28:10.610Z,93.23
2023-04-26T02:29:10.514Z,93.12
2023-04-26T02:30:10.523Z,93.54
2023-04-26T02:31:10.569Z,93.44
2023-04-26T02:32:10.652Z,93.12
2023-04-26T02:33:10.599Z,93.02
2023-04-26T02:34:10.475Z,92.91
2023-04-26T02:35:10.460Z,93.02
2023-04-26T02:36:10.461Z,93.44
2023-04-26T02:37:10.454Z,93.60
2023-04-26T02:38:10.498Z,93.71
2023-04-26T02:39:10.426Z,93.81
2023-04-26T02:40:10.455Z,93.91
2023-04-26T02:41:10.418Z,93.98
2023-04-26T02:42:10.535Z,94.18
2023-04-26T02:43:10.378Z,94.18
2023-04-26T02:44:10.382Z,94.08
2023-04-26T02:45:10.374Z,94.08
2023-04-26T02:46:10.377Z,94.23
2023-04-26T02:47:10.462Z,94.23
2023-04-26T02:48:10.377Z,94.43
2023-04-26T02:49:10.306Z,94.54
2023-04-26T02:50:10.307Z,94.43
2023-04-26T02:51:10.315Z,94.54
2023-04-26T02:52:10.340Z,94.54
2023-04-26T02:53:10.292Z,94.43
2023-04-26T02:54:10.282Z,94.54
2023-04-26T02:55:10.265Z,94.54
2023-04-26T02:56:10.305Z,94.43
2023-04-26T02:57:10.243Z,94.33
2023-04-26T02:58:10.267Z,94.23
2023-04-26T02:59:10.199Z,94.33
2023-04-26T03:00:10.254Z,94.39
2023-04-26T03:01:10.207Z,94.18
2023-04-26T03:02:10.526Z,93.98
2023-04-26T03:03:10.289Z,93.98
2023-04-26T03:04:10.251Z,93.87
2023-04-26T03:05:10.174Z,93.81
2023-04-26T03:06:10.139Z,93.71
2023-04-26T03:07:10.134Z,93.81
2023-04-26T03:08:10.132Z,93.71
2023-04-26T03:09:10.101Z,93.81
2023-04-26T03:10:10.120Z,94.02
2023-04-26T03:11:10.074Z,93.81
2023-04-26T03:12:10.164Z,93.91
2023-04-26T03:13:10.051Z,94.02
2023-04-26T03:14:10.080Z,94.12
2023-04-26T03:15:10.042Z,94.12
2023-04-26T03:16:10.051Z,94.12
2023-04-26T03:17:10.035Z,93.96
2023-04-26T03:18:10.050Z,93.75
2023-04-26T03:19:10.023Z,93.54
2023-04-26T03:20:09.994Z,93.23
2023-04-26T03:21:09.965Z,93.16
2023-04-26T03:22:09.979Z,92.96
2023-04-26T03:23:09.954Z,92.96
2023-04-26T03:24:09.954Z,92.85
2023-04-26T03:25:09.951Z,92.75
2023-04-26T03:26:09.924Z,92.85
2023-04-26T03:27:09.949Z,92.90
2023-04-26T03:28:09.991Z,93.21
2023-04-26T03:29:09.978Z,93.63
2023-04-26T03:30:09.956Z,93.84
2023-04-26T03:31:10.051Z,93.84
2023-04-26T03:32:09.986Z,93.94
2023-04-26T03:33:09.884Z,94.15
2023-04-26T03:34:09.907Z,94.25
2023-04-26T03:35:09.850Z,94.35
2023-04-26T03:36:09.823Z,95.09
2023-04-26T03:37:09.847Z,95.09
2023-04-26T03:38:09.823Z,95.19
2023-04-26T03:39:09.783Z,94.88
2023-04-26T03:40:09.876Z,94.57
2023-04-26T03:41:09.777Z,94.57
2023-04-26T03:42:09.826Z,94.46
2023-04-26T03:43:09.739Z,94.35
2023-04-26T03:44:09.842Z,94.67
2023-04-26T03:45:09.717Z,95.09
2023-04-26T03:46:09.798Z,95.29
2023-04-26T03:47:09.779Z,95.82
2023-04-26T03:48:09.773Z,95.72
2023-04-26T03:49:09.700Z,95.72
2023-04-26T03:50:09.763Z,95.61
2023-04-26T03:51:09.664Z,95.46
2023-04-26T03:52:09.696Z,95.78
2023-04-26T03:53:09.648Z,95.98
2023-04-26T03:54:09.759Z,95.88
2023-04-26T03:55:09.617Z,95.98
2023-04-26T03:56:09.701Z,96.09
2023-04-26T03:57:09.600Z,95.98
2023-04-26T03:58:09.594Z,95.98
2023-04-26T03:59:09.569Z,95.98
2023-04-26T04:00:09.609Z,96.09
2023-04-26T04:01:09.556Z,96.09
2023-04-26T04:02:09.709Z,96.09
2023-04-26T04:03:09.784Z,96.30
2023-04-26T04:04:10.475Z,96.50
2023-04-26T04:05:09.639Z,96.50
2023-04-26T04:06:09.704Z,96.40
2023-04-26T04:07:09.505Z,96.40
2023-04-26T04:08:09.496Z,96.36
2023-04-26T04:09:09.470Z,96.46
2023-04-26T04:10:09.680Z,96.56
2023-04-26T04:11:09.448Z,96.56
2023-04-26T04:12:09.476Z,96.73
2023-04-26T04:13:09.429Z,96.94
2023-04-26T04:14:09.492Z,96.83
2023-04-26T04:15:09.407Z,96.58
2023-04-26T04:16:09.439Z,96.48
2023-04-26T04:17:09.400Z,96.37
2023-04-26T04:18:09.608Z,96.26
2023-04-26T04:19:09.416Z,96.16
2023-04-26T04:20:09.365Z,96.06
2023-04-26T04:21:09.337Z,95.95
2023-04-26T04:22:09.362Z,95.85
2023-04-26T04:23:09.320Z,95.95
2023-04-26T04:24:09.324Z,95.95
2023-04-26T04:25:09.328Z,95.75
2023-04-26T04:26:09.296Z,95.70
2023-04-26T04:27:09.291Z,95.60
2023-04-26T04:28:09.309Z,95.50
2023-04-26T04:29:09.431Z,95.39
2023-04-26T04:30:09.287Z,95.18
2023-04-26T04:31:09.291Z,95.08
2023-04-26T04:32:09.369Z,94.98
2023-04-26T04:33:09.361Z,94.76
2023-04-26T04:34:09.221Z,94.76
2023-04-26T04:35:09.197Z,94.66
2023-04-26T04:36:09.204Z,94.87
2023-04-26T04:37:09.179Z,94.87
2023-04-26T04:38:09.234Z,94.81
2023-04-26T04:39:09.147Z,94.92
2023-04-26T04:41:09.129Z,94.70
2023-04-26T04:42:09.157Z,94.60
2023-04-26T04:43:09.135Z,94.60
2023-04-26T04:44:09.160Z,94.60
2023-04-26T04:45:09.077Z,94.70
2023-04-26T04:46:11.298Z,94.60
2023-04-26T04:47:09.256Z,94.60
2023-04-26T04:48:09.456Z,94.39
2023-04-26T04:49:09.161Z,94.39
2023-04-26T04:50:09.080Z,94.70
2023-04-26T04:51:09.084Z,95.12
2023-04-26T04:52:09.073Z,95.23
2023-04-26T04:53:09.032Z,95.12
2023-04-26T04:54:09.113Z,94.92
2023-04-26T04:55:09.082Z,94.81
2023-04-26T04:56:09.025Z,94.70
2023-04-26T04:57:09.110Z,94.49
2023-04-26T04:58:09.009Z,94.39
2023-04-26T04:59:08.942Z,94.29
2023-04-26T05:00:08.946Z,94.29
2023-04-26T05:01:08.920Z,94.08
2023-04-26T05:02:09.017Z,94.18
2023-04-26T05:03:09.019Z,94.29
2023-04-26T05:04:09.079Z,94.39
2023-04-26T05:05:09.042Z,94.49
2023-04-26T05:06:08.899Z,94.60
2023-04-26T05:07:08.871Z,94.81
2023-04-26T05:08:08.914Z,94.92
2023-04-26T05:09:08.871Z,94.92
2023-04-26T05:10:08.835Z,94.81
2023-04-26T05:11:08.842Z,94.60
2023-04-26T05:12:08.877Z,94.49
2023-04-26T05:13:08.830Z,94.29
2023-04-26T05:14:08.788Z,94.08
2023-04-26T05:15:08.822Z,93.98
2023-04-26T05:16:08.793Z,93.98
2023-04-26T05:17:08.751Z,94.08
2023-04-26T05:18:08.905Z,94.29
2023-04-26T05:19:09.753Z,94.49
2023-04-26T05:20:08.790Z,94.49
2023-04-26T05:21:08.702Z,94.56
2023-04-26T05:22:08.731Z,94.56
2023-04-26T05:23:08.704Z,94.56
2023-04-26T05:24:08.719Z,94.66
2023-04-26T05:25:08.683Z,94.76
2023-04-26T05:26:08.676Z,94.87
2023-04-26T05:27:08.649Z,94.76
2023-04-26T05:28:08.668Z,94.76
2023-04-26T05:29:08.620Z,94.82
2023-04-26T05:30:08.690Z,94.82
2023-04-26T05:31:10.721Z,94.93
2023-04-26T05:32:08.957Z,94.93
2023-04-26T05:33:08.683Z,94.93
2023-04-26T05:34:08.589Z,94.93
2023-04-26T05:35:08.620Z,94.93
2023-04-26T05:36:08.621Z,94.78
2023-04-26T05:37:08.590Z,94.89
2023-04-26T05:38:08.768Z,94.78
2023-04-26T05:39:08.574Z,94.78
2023-04-26T05:40:08.525Z,94.89
2023-04-26T05:41:08.504Z,94.78
2023-04-26T05:42:08.499Z,94.57
2023-04-26T05:43:08.516Z,94.64
2023-04-26T05:44:08.469Z,94.43
2023-04-26T05:45:08.477Z,94.53
2023-04-26T05:46:08.568Z,94.43
2023-04-26T05:47:08.454Z,94.32
2023-04-26T05:48:08.564Z,94.18
2023-04-26T05:49:08.424Z,94.07
2023-04-26T05:50:08.830Z,94.07
2023-04-26T05:51:08.420Z,93.82
2023-04-26T05:52:08.410Z,93.82
2023-04-26T05:53:08.400Z,93.78
2023-04-26T05:54:08.396Z,93.78
2023-04-26T05:55:08.344Z,93.53
2023-04-26T05:56:08.331Z,93.32
2023-04-26T05:57:08.362Z,93.18
2023-04-26T05:58:08.363Z,93.18
2023-04-26T05:59:08.326Z,92.93
2023-04-26T06:00:08.451Z,92.82
2023-04-26T06:01:08.284Z,92.61
2023-04-26T06:02:08.325Z,92.05
2023-04-26T06:03:08.571Z,91.43
2023-04-26T06:04:08.656Z,91.18
2023-04-26T06:05:08.550Z,90.87
2023-04-26T06:06:08.243Z,90.52
2023-04-26T06:07:08.261Z,89.79
2023-04-26T06:08:08.516Z,88.51
2023-04-26T06:09:08.270Z,87.99
2023-04-26T06:10:08.181Z,87.68
2023-04-26T06:11:08.171Z,87.23
2023-04-26T06:12:08.195Z,87.23
2023-04-26T06:13:08.173Z,87.54
2023-04-26T06:14:14.388Z,87.74
2023-04-26T06:15:09.474Z,88.06
2023-04-26T06:16:08.151Z,87.64
2023-04-26T06:17:08.184Z,87.02
2023-04-26T06:18:08.169Z,87.33
2023-04-26T06:19:08.099Z,86.81
2023-04-26T06:20:08.127Z,87.02
2023-04-26T06:21:08.064Z,86.98
2023-04-26T06:22:08.101Z,86.67
2023-04-26T06:23:08.080Z,86.57
2023-04-26T06:24:08.196Z,86.52
2023-04-26T06:25:08.057Z,85.70
2023-04-26T06:26:08.262Z,85.49
2023-04-26T06:27:08.010Z,85.49
2023-04-26T06:28:08.075Z,84.45
2023-04-26T06:29:08.000Z,83.39
2023-04-26T06:30:08.006Z,84.28
2023-04-26T06:31:08.043Z,83.25
2023-04-26T06:32:08.006Z,83.51
2023-04-26T06:33:08.019Z,82.07
2023-04-26T06:34:08.576Z,81.76
2023-04-26T06:35:07.920Z,82.38
2023-04-26T06:36:07.909Z,82.38
2023-04-26T06:37:07.900Z,81.76
2023-04-26T06:38:07.889Z,82.28
2023-04-26T06:39:08.091Z,82.79
2023-04-26T06:40:08.096Z,83.17
2023-04-26T06:41:07.844Z,82.65
2023-04-26T06:42:07.930Z,82.03
2023-04-26T06:43:07.860Z,81.58
2023-04-26T06:44:07.810Z,80.14
2023-04-26T06:45:07.850Z,78.49
2023-04-26T06:46:07.871Z,78.59
2023-04-26T06:47:07.801Z,79.00
2023-04-26T06:48:07.836Z,79.41
2023-04-26T06:49:07.779Z,79.52
2023-04-26T06:50:07.774Z,78.90
2023-04-26T06:51:07.752Z,78.08
2023-04-26T06:52:09.347Z,77.42
2023-04-26T06:53:07.772Z,77.01
2023-04-26T06:54:07.859Z,78.04
2023-04-26T06:55:07.704Z,77.59
2023-04-26T06:56:07.750Z,77.38
2023-04-26T06:57:07.678Z,78.00
2023-04-26T06:58:07.769Z,77.28
2023-04-26T06:59:07.652Z,76.63
2023-04-26T07:00:07.924Z,76.01
2023-04-26T07:01:07.628Z,76.11
2023-04-26T07:02:07.688Z,76.32
2023-04-26T07:03:07.791Z,75.70
2023-04-26T07:04:07.916Z,75.53
2023-04-26T07:05:07.727Z,76.04
2023-04-26T07:06:07.578Z,75.32
2023-04-26T07:07:07.591Z,75.22
2023-04-26T07:08:07.693Z,76.63
2023-04-26T07:09:07.538Z,75.08
2023-04-26T07:10:07.575Z,74.67
2023-04-26T07:11:07.522Z,75.05
2023-04-26T07:12:07.739Z,75.15
2023-04-26T07:13:09.369Z,76.49
2023-04-26T07:14:07.548Z,75.73
2023-04-26T07:15:07.537Z,75.42
2023-04-26T07:16:07.685Z,75.52
2023-04-26T07:17:07.567Z,75.84
2023-04-26T07:18:07.470Z,75.12
2023-04-26T07:19:07.439Z,73.98
2023-04-26T07:20:07.507Z,73.95
2023-04-26T07:21:07.491Z,73.85
2023-04-26T07:22:07.458Z,75.18
2023-04-26T07:23:07.477Z,74.15
2023-04-26T07:24:07.530Z,73.74
2023-04-26T07:25:07.374Z,72.44
2023-04-26T07:26:07.545Z,73.47
2023-04-26T07:27:07.387Z,74.36
2023-04-26T07:28:07.582Z,73.74
2023-04-26T07:29:07.376Z,73.13
2023-04-26T07:30:07.478Z,73.26
2023-04-26T07:31:09.586Z,72.64
2023-04-26T07:32:07.483Z,72.54
2023-04-26T07:33:07.382Z,73.33
2023-04-26T07:34:07.725Z,71.41
2023-04-26T07:35:07.285Z,71.20
2023-04-26T07:36:07.320Z,72.24
2023-04-26T07:37:07.246Z,73.85
2023-04-26T07:38:07.531Z,73.02
2023-04-26T07:39:07.218Z,71.48
2023-04-26T07:40:07.507Z,71.58
2023-04-26T07:41:07.206Z,73.64
2023-04-26T07:42:07.349Z,73.30
2023-04-26T07:43:07.177Z,72.06
2023-04-26T07:44:07.172Z,74.19
2023-04-26T07:45:07.162Z,72.03
2023-04-26T07:46:07.254Z,71.72
2023-04-26T07:47:07.203Z,71.93
2023-04-26T07:48:07.202Z,72.34
2023-04-26T07:49:07.105Z,71.11
2023-04-26T07:50:07.112Z,70.73
2023-04-26T07:51:07.090Z,70.97
2023-04-26T07:52:07.176Z,72.30
2023-04-26T07:53:07.072Z,71.20
2023-04-26T07:54:07.134Z,72.75
2023-04-26T07:55:07.050Z,73.16
2023-04-26T07:56:07.117Z,74.46
2023-04-26T07:57:07.175Z,74.05
2023-04-26T07:58:07.044Z,73.02
2023-04-26T07:59:07.013Z,71.96
2023-04-26T08:00:07.131Z,74.12
2023-04-26T08:01:06.999Z,70.79
2023-04-26T08:02:07.116Z,72.96
2023-04-26T08:03:07.194Z,70.49
2023-04-26T08:04:07.316Z,70.21
2023-04-26T08:05:07.126Z,70.32
2023-04-26T08:06:07.089Z,71.04
2023-04-26T08:07:06.927Z,71.75
2023-04-26T08:08:07.011Z,72.65
2023-04-26T08:09:06.905Z,72.13
2023-04-26T08:10:07.054Z,71.31
2023-04-26T08:11:06.919Z,71.11
2023-04-26T08:12:06.980Z,70.79
2023-04-26T08:13:06.855Z,71.41
2023-04-26T08:14:06.960Z,69.36
2023-04-26T08:15:06.847Z,69.36
2023-04-26T08:16:06.874Z,69.90
2023-04-26T08:17:06.961Z,69.87
2023-04-26T08:18:06.899Z,69.84
2023-04-26T08:19:06.805Z,68.81
2023-04-26T08:20:07.024Z,68.81
2023-04-26T08:21:06.767Z,67.58
2023-04-26T08:22:06.854Z,68.61
2023-04-26T08:23:06.754Z,69.81
2023-04-26T08:24:06.740Z,69.50
2023-04-26T08:25:06.782Z,68.68
2023-04-26T08:26:06.813Z,69.06
2023-04-26T08:27:06.718Z,67.65
2023-04-26T08:28:06.742Z,67.65
2023-04-26T08:29:06.689Z,68.40
2023-04-26T08:30:06.793Z,68.68
2023-04-26T08:31:06.672Z,67.93
2023-04-26T08:32:06.859Z,67.28
2023-04-26T08:33:06.713Z,66.05
2023-04-26T08:34:06.697Z,66.67
2023-04-26T08:35:06.631Z,65.54
2023-04-26T08:36:06.694Z,67.46
2023-04-26T08:37:06.610Z,65.20
2023-04-26T08:38:06.621Z,64.79
2023-04-26T08:39:06.584Z,65.92
2023-04-26T08:40:06.733Z,66.12
2023-04-26T08:41:06.550Z,66.22
2023-04-26T08:42:06.730Z,65.37
2023-04-26T08:43:06.532Z,65.07
2023-04-26T08:44:06.569Z,64.97
2023-04-26T08:45:06.511Z,65.86
2023-04-26T08:46:06.778Z,63.40
2023-04-26T08:47:06.510Z,63.12
2023-04-26T08:48:06.633Z,64.04
2023-04-26T08:49:06.478Z,64.65
2023-04-26T08:50:06.622Z,65.58
2023-04-26T08:51:06.460Z,65.27
2023-04-26T08:52:06.735Z,64.25
2023-04-26T08:53:06.467Z,63.35
2023-04-26T08:54:06.492Z,65.10
2023-04-26T08:55:06.407Z,65.30
2023-04-26T08:56:06.537Z,65.30
2023-04-26T08:57:06.398Z,64.92
2023-04-26T08:58:06.444Z,64.20
2023-04-26T08:59:06.355Z,63.69
2023-04-26T09:00:06.454Z,64.82
2023-04-26T09:01:06.370Z,66.46
2023-04-26T09:02:06.406Z,67.18
2023-04-26T09:03:06.473Z,65.23
2023-04-26T09:04:06.626Z,65.71
2023-04-26T09:05:06.400Z,64.79
2023-04-26T09:06:06.494Z,65.78
2023-04-26T09:07:06.324Z,63.87
2023-04-26T09:08:06.299Z,64.48
2023-04-26T09:09:06.272Z,64.79
2023-04-26T09:10:06.253Z,65.71
2023-04-26T09:11:06.237Z,63.35
2023-04-26T09:12:06.318Z,63.25
2023-04-26T09:13:06.201Z,63.25
2023-04-26T09:14:06.241Z,63.84
2023-04-26T09:15:06.219Z,63.94
2023-04-26T09:16:06.578Z,63.64
2023-04-26T09:17:06.173Z,62.51
2023-04-26T09:18:06.265Z,60.89
2023-04-26T09:19:06.173Z,61.61
2023-04-26T09:20:07.906Z,62.54
2023-04-26T09:21:06.144Z,63.12
2023-04-26T09:22:06.179Z,62.40
2023-04-26T09:23:06.109Z,64.53
2023-04-26T09:24:06.093Z,61.76
2023-04-26T09:25:06.081Z,61.79
2023-04-26T09:26:06.223Z,61.48
2023-04-26T09:27:06.066Z,60.49
2023-04-26T09:28:06.049Z,59.15
2023-04-26T09:29:06.041Z,59.77
2023-04-26T09:30:06.061Z,60.38
2023-04-26T09:31:06.045Z,61.51
2023-04-26T09:32:06.071Z,60.25
2023-04-26T09:33:06.050Z,61.18
2023-04-26T09:34:07.142Z,61.79
2023-04-26T09:35:05.986Z,59.12
2023-04-26T09:36:06.311Z,57.07
2023-04-26T09:37:05.984Z,57.79
2023-04-26T09:38:11.001Z,57.18
2023-04-26T09:39:06.937Z,59.74
2023-04-26T09:40:05.992Z,58.95
2023-04-26T09:41:05.918Z,60.46
2023-04-26T09:42:06.165Z,60.76
2023-04-26T09:43:05.878Z,59.43
2023-04-26T09:44:06.289Z,58.84
2023-04-26T09:45:05.886Z,59.23
2023-04-26T09:46:05.902Z,60.46
2023-04-26T09:47:05.892Z,60.42
2023-04-26T09:48:05.949Z,61.45
2023-04-26T09:49:05.833Z,59.92
2023-04-26T09:50:05.826Z,58.58
2023-04-26T09:51:05.785Z,56.84
2023-04-26T09:52:06.092Z,57.89
2023-04-26T09:53:05.777Z,57.69
2023-04-26T09:54:05.768Z,56.90
2023-04-26T09:55:05.780Z,59.33
2023-04-26T09:56:05.941Z,59.43
2023-04-26T09:57:05.751Z,59.53
2023-04-26T09:58:05.762Z,57.92
2023-04-26T09:59:05.797Z,59.56
2023-04-26T10:00:05.721Z,58.72
2023-04-26T10:01:05.757Z,57.89
2023-04-26T10:02:05.794Z,56.67
2023-04-26T10:03:05.852Z,57.82
2023-04-26T10:04:05.722Z,57.92
2023-04-26T10:05:05.701Z,59.64
2023-04-26T10:06:05.683Z,58.81
2023-04-26T10:07:05.630Z,57.89
2023-04-26T10:08:05.721Z,57.59
2023-04-26T10:09:05.611Z,58.20
2023-04-26T10:10:05.591Z,59.74
2023-04-26T10:11:05.573Z,60.76
2023-04-26T10:12:05.599Z,60.02
2023-04-26T10:13:05.562Z,60.99
2023-04-26T10:14:05.626Z,59.42
2023-04-26T10:15:05.769Z,60.31
2023-04-26T10:16:05.633Z,56.71
2023-04-26T10:17:05.567Z,57.09
2023-04-26T10:18:05.713Z,59.72
2023-04-26T10:19:05.504Z,55.33
2023-04-26T10:20:05.516Z,55.84
2023-04-26T10:21:05.485Z,54.87
2023-04-26T10:22:05.494Z,55.92
2023-04-26T10:23:05.445Z,57.25
2023-04-26T10:24:05.557Z,57.58
2023-04-26T10:25:05.430Z,59.30
2023-04-26T10:26:05.493Z,59.09
2023-04-26T10:27:05.428Z,58.37
2023-04-26T10:28:05.467Z,58.17
2023-04-26T10:29:05.614Z,60.08
2023-04-26T10:30:05.400Z,57.93
2023-04-26T10:31:05.361Z,56.92
2023-04-26T10:32:05.429Z,54.03
2023-04-26T10:33:05.400Z,54.74
2023-04-26T10:34:05.362Z,52.47
2023-04-26T10:35:05.316Z,54.03
2023-04-26T10:36:05.354Z,53.23
2023-04-26T10:37:05.300Z,54.77
2023-04-26T10:38:05.336Z,53.47
2023-04-26T10:39:05.325Z,54.82
2023-04-26T10:40:05.433Z,52.03
2023-04-26T10:41:05.249Z,52.83
2023-04-26T10:42:05.257Z,54.03
2023-04-26T10:43:05.247Z,53.31
2023-04-26T10:44:05.221Z,51.68
2023-04-26T10:45:05.274Z,52.80
2023-04-26T10:46:05.350Z,53.62
2023-04-26T10:47:05.202Z,51.57
2023-04-26T10:48:05.638Z,51.60
2023-04-26T10:49:05.179Z,51.60
2023-04-26T10:50:05.829Z,53.44
2023-04-26T10:51:05.152Z,52.83
2023-04-26T10:52:05.185Z,51.70
2023-04-26T10:53:05.862Z,54.13
2023-04-26T10:54:05.146Z,52.37
2023-04-26T10:55:05.106Z,51.45
2023-04-26T10:56:05.114Z,50.94
2023-04-26T10:57:05.097Z,54.39
2023-04-26T10:58:05.071Z,53.98
2023-04-26T10:59:13.624Z,51.91
2023-04-26T11:00:06.083Z,53.85
2023-04-26T11:01:05.158Z,53.08
2023-04-26T11:02:05.081Z,53.88
2023-04-26T11:03:05.182Z,51.20
2023-04-26T11:04:05.258Z,50.05
2023-04-26T11:05:05.054Z,51.25
2023-04-26T11:06:05.074Z,50.31
2023-04-26T11:07:04.976Z,51.03
2023-04-26T11:08:05.004Z,51.00
2023-04-26T11:09:04.997Z,50.49
2023-04-26T11:10:05.062Z,49.19
2023-04-26T11:11:05.044Z,48.07
2023-04-26T11:12:05.068Z,51.13
2023-04-26T11:13:04.919Z,50.44
2023-04-26T11:14:05.396Z,49.54
2023-04-26T11:15:05.934Z,50.67
2023-04-26T11:16:04.935Z,49.73
2023-04-26T11:17:04.903Z,49.52
2023-04-26T11:18:05.053Z,48.99
2023-04-26T11:19:04.852Z,47.87
2023-04-26T11:20:04.880Z,48.99
2023-04-26T11:21:04.842Z,47.05
2023-04-26T11:22:04.829Z,45.42
2023-04-26T11:23:04.815Z,49.88
2023-04-26T11:24:04.857Z,49.45
2023-04-26T11:25:04.792Z,47.01
2023-04-26T11:26:04.863Z,46.42
2023-04-26T11:27:05.018Z,49.68
2023-04-26T11:28:04.785Z,48.46
2023-04-26T11:29:04.800Z,48.25
2023-04-26T11:30:04.870Z,49.45
2023-04-26T11:31:04.795Z,50.26
2023-04-26T11:32:04.806Z,47.92
2023-04-26T11:33:04.743Z,50.45
2023-04-26T11:34:04.704Z,48.49
2023-04-26T11:35:04.687Z,45.64
2023-04-26T11:36:04.715Z,47.19
2023-04-26T11:37:05.067Z,45.36
2023-04-26T11:38:04.731Z,42.02
2023-04-26T11:39:04.746Z,42.22
2023-04-26T11:40:04.741Z,41.21
2023-04-26T11:41:04.637Z,42.13
2023-04-26T11:42:04.661Z,44.65
2023-04-26T11:43:04.661Z,44.53
2023-04-26T11:44:04.668Z,46.13
2023-04-26T11:45:04.648Z,46.51
2023-04-26T11:46:04.850Z,46.17
2023-04-26T11:47:04.732Z,45.37
2023-04-26T11:48:04.787Z,45.78
2023-04-26T11:49:04.601Z,44.77
2023-04-26T11:50:04.601Z,47.81
2023-04-26T11:51:04.525Z,44.28
2023-04-26T11:52:04.576Z,47.13
2023-04-26T11:53:04.645Z,47.22
2023-04-26T11:54:04.540Z,44.30
2023-04-26T11:55:04.521Z,44.04
2023-04-26T11:56:04.506Z,45.26
2023-04-26T11:57:04.521Z,45.15
2023-04-26T11:58:04.549Z,49.08
2023-04-26T11:59:04.475Z,45.83
2023-04-26T12:00:04.962Z,46.51
2023-04-26T12:01:04.437Z,46.01
2023-04-26T12:02:04.672Z,45.62
2023-04-26T12:03:04.623Z,45.21
2023-04-26T12:04:04.544Z,44.53
2023-04-26T12:05:04.468Z,46.56
2023-04-26T12:06:04.419Z,47.33
2023-04-26T12:07:04.385Z,46.21
2023-04-26T12:08:04.530Z,45.60
2023-04-26T12:09:04.366Z,45.90
2023-04-26T12:10:04.448Z,45.42
2023-04-26T12:11:04.363Z,47.20
2023-04-26T12:12:04.353Z,48.40
2023-04-26T12:13:04.384Z,44.46
2023-04-26T12:14:04.384Z,46.29
2023-04-26T12:15:04.297Z,44.54
2023-04-26T12:16:07.352Z,42.82
2023-04-26T12:17:05.359Z,45.94
2023-04-26T12:18:04.380Z,43.38
2023-04-26T12:19:04.266Z,42.19
2023-04-26T12:20:04.307Z,42.61
2023-04-26T12:21:04.242Z,43.04
2023-04-26T12:22:04.268Z,43.43
2023-04-26T12:23:04.219Z,44.52
2023-04-26T12:24:04.391Z,42.74
2023-04-26T12:25:04.208Z,43.65
2023-04-26T12:26:04.220Z,45.37
2023-04-26T12:27:04.197Z,46.45
2023-04-26T12:28:04.235Z,42.92
2023-04-26T12:29:04.206Z,43.51
2023-04-26T12:30:05.205Z,43.30
2023-04-26T12:31:04.174Z,41.70
2023-04-26T12:32:04.499Z,42.11
2023-04-26T12:34:04.156Z,39.91
2023-04-26T12:35:04.106Z,40.03
2023-04-26T12:36:04.174Z,43.98
2023-04-26T12:37:04.162Z,43.55
2023-04-26T12:38:04.074Z,43.35
2023-04-26T12:39:04.147Z,42.74
2023-04-26T12:40:04.657Z,42.37
2023-04-26T12:41:04.053Z,45.29
2023-04-26T12:42:04.367Z,45.89
2023-04-26T12:43:04.033Z,42.92
2023-04-26T12:44:04.063Z,42.23
2023-04-26T12:45:04.015Z,40.01
2023-04-26T12:46:04.075Z,42.88
2023-04-26T12:47:03.993Z,42.59
2023-04-26T12:48:04.015Z,41.78
2023-04-26T12:49:03.961Z,41.29
2023-04-26T12:50:03.981Z,41.72
2023-04-26T12:51:03.963Z,45.18
2023-04-26T12:52:03.973Z,44.87
2023-04-26T12:53:03.930Z,45.48
2023-04-26T12:54:03.942Z,44.79